Time,TemperatureF,DewpointF,PressureIn,WindDirection,WindDirectionDegrees,WindSpeedMPH,WindSpeedGustMPH,Humidity,HourlyPrecipIn,Conditions,Clouds,dailyrainin,SolarRadiationWatts/m^2,SoftwareType,DateUTC
2013-07-09 00:02:00,75.0,46.0,-100.00,NNW,347,0.0,0.0,36,0.00,,,0.00,0.000000,,2013-07-09 07:02:00,
2013-07-09 00:34:00,74.0,46.0,-100.00,NW,315,0.0,0.0,37,0.00,,,0.00,0.000000,,2013-07-09 07:34:00,
2013-07-09 00:43:00,74.0,46.0,-100.00,NW,315,0.0,0.0,37,0.00,,,0.00,0.000000,,2013-07-09 07:43:00,
2013-07-09 00:53:00,74.0,46.0,-100.00,NW,315,0.0,0.0,37,0.00,,,0.00,0.000000,,2013-07-09 07:53:00,
2013-07-09 01:01:00,74.0,46.0,-100.00,NW,315,0.0,0.0,37,0.00,,,0.00,0.000000,,2013-07-09 08:01:00,
2013-07-09 01:22:00,73.0,46.0,-100.00,North,2,0.0,0.0,38,0.00,,,0.00,0.000000,,2013-07-09 08:22:00,
2013-07-09 01:33:00,73.0,46.0,-100.00,North,2,0.0,0.0,38,0.00,,,0.00,0.000000,,2013-07-09 08:33:00,
2013-07-09 01:43:00,73.0,46.0,-100.00,North,2,0.0,0.0,38,0.00,,,0.00,0.000000,,2013-07-09 08:43:00,
2013-07-09 01:52:00,73.0,46.0,-100.00,North,2,0.0,0.0,38,0.00,,,0.00,0.000000,,2013-07-09 08:52:00,
2013-07-09 02:02:00,73.0,46.0,-100.00,North,2,0.0,0.0,38,0.00,,,0.00,0.000000,,2013-07-09 09:02:00,
2013-07-09 02:22:00,71.0,44.0,-100.00,NNW,343,0.0,0.0,38,0.00,,,0.00,0.000000,,2013-07-09 09:22:00,
2013-07-09 02:34:00,71.0,44.0,-100.00,NNW,343,0.0,0.0,38,0.00,,,0.00,0.000000,,2013-07-09 09:34:00,
2013-07-09 02:42:00,71.0,44.0,-100.00,NNW,343,0.0,0.0,38,0.00,,,0.00,0.000000,,2013-07-09 09:42:00,
2013-07-09 02:53:00,71.0,44.0,-100.00,NNW,343,0.0,0.0,38,0.00,,,0.00,0.000000,,2013-07-09 09:53:00,
2013-07-09 03:01:00,71.0,44.0,-100.00,NNW,343,0.0,0.0,38,0.00,,,0.00,0.000000,,2013-07-09 10:01:00,
2013-07-09 03:22:00,69.0,44.0,-100.00,West,280,0.0,0.0,41,0.00,,,0.00,0.000000,,2013-07-09 10:22:00,
2013-07-09 03:34:00,69.0,44.0,-100.00,West,280,0.0,0.0,41,0.00,,,0.00,0.000000,,2013-07-09 10:34:00,
2013-07-09 03:42:00,69.0,44.0,-100.00,West,280,0.0,0.0,41,0.00,,,0.00,0.000000,,2013-07-09 10:42:00,
2013-07-09 03:52:00,69.0,44.0,-100.00,West,280,0.0,0.0,41,0.00,,,0.00,0.000000,,2013-07-09 10:52:00,
2013-07-09 04:01:00,69.0,44.0,-100.00,West,280,0.0,0.0,41,0.00,,,0.00,0.000000,,2013-07-09 11:01:00,
2013-07-09 04:22:00,68.0,43.0,-100.00,NNW,346,0.0,0.0,41,0.00,,,0.00,0.000000,,2013-07-09 11:22:00,
2013-07-09 04:34:00,68.0,43.0,-100.00,NNW,346,0.0,0.0,41,0.00,,,0.00,0.000000,,2013-07-09 11:34:00,
2013-07-09 04:42:00,68.0,43.0,-100.00,NNW,346,0.0,0.0,41,0.00,,,0.00,0.000000,,2013-07-09 11:42:00,
2013-07-09 04:53:00,68.0,43.0,-100.00,NNW,346,0.0,0.0,41,0.00,,,0.00,0.000000,,2013-07-09 11:53:00,
2013-07-09 05:01:00,68.0,43.0,-100.00,NNW,346,0.0,0.0,41,0.00,,,0.00,0.000000,,2013-07-09 12:01:00,
2013-07-09 05:22:00,68.0,45.0,-100.00,NNW,332,0.0,0.0,43,0.00,,,0.00,0.000000,,2013-07-09 12:22:00,
2013-07-09 05:33:00,68.0,45.0,-100.00,NNW,332,0.0,0.0,43,0.00,,,0.00,0.000000,,2013-07-09 12:33:00,
2013-07-09 05:43:00,68.0,45.0,-100.00,NNW,332,0.0,0.0,43,0.00,,,0.00,0.000000,,2013-07-09 12:43:00,
2013-07-09 05:52:00,68.0,45.0,-100.00,NNW,332,0.0,0.0,43,0.00,,,0.00,0.000000,,2013-07-09 12:52:00,
2013-07-09 06:01:00,68.0,45.0,-100.00,NNW,332,0.0,0.0,43,0.00,,,0.00,0.000000,,2013-07-09 13:01:00,
2013-07-09 06:33:00,68.0,43.0,-100.00,North,350,0.0,0.0,41,0.00,,,0.00,11.000000,,2013-07-09 13:33:00,
2013-07-09 06:43:00,68.0,43.0,-100.00,North,350,0.0,0.0,41,0.00,,,0.00,11.000000,,2013-07-09 13:43:00,
2013-07-09 06:53:00,68.0,43.0,-100.00,North,350,0.0,0.0,41,0.00,,,0.00,11.000000,,2013-07-09 13:53:00,
2013-07-09 07:01:00,68.0,43.0,-100.00,North,350,0.0,0.0,41,0.00,,,0.00,11.000000,,2013-07-09 14:01:00,
2013-07-09 07:34:00,67.0,43.0,-100.00,NNW,347,0.0,0.0,41,0.00,,,0.00,33.000000,,2013-07-09 14:34:00,
2013-07-09 07:43:00,67.0,43.0,-100.00,NNW,347,0.0,0.0,41,0.00,,,0.00,33.000000,,2013-07-09 14:43:00,
2013-07-09 08:34:00,76.0,48.0,-100.00,North,357,0.0,0.0,37,-99.99,,,0.00,149.000000,,2013-07-09 15:34:00,
2013-07-09 08:43:00,76.0,48.0,-100.00,North,357,0.0,0.0,37,-99.99,,,0.00,149.000000,,2013-07-09 15:43:00,
2013-07-09 08:52:00,76.0,48.0,-100.00,North,357,0.0,0.0,37,-99.99,,,0.00,149.000000,,2013-07-09 15:52:00,
2013-07-09 09:22:00,83.0,52.0,-100.00,East,96,0.0,0.0,35,0.00,,,0.00,237.000000,,2013-07-09 16:22:00,
2013-07-09 09:34:00,83.0,52.0,-100.00,East,96,0.0,0.0,35,0.00,,,0.00,237.000000,,2013-07-09 16:34:00,
2013-07-09 09:43:00,83.0,52.0,-100.00,East,96,0.0,0.0,35,0.00,,,0.00,237.000000,,2013-07-09 16:43:00,
2013-07-09 09:53:00,83.0,52.0,-100.00,East,96,0.0,0.0,35,0.00,,,0.00,237.000000,,2013-07-09 16:53:00,
2013-07-09 10:02:00,83.0,52.0,-100.00,East,96,0.0,0.0,35,0.00,,,0.00,237.000000,,2013-07-09 17:02:00,
2013-07-09 10:45:00,92.0,55.0,-100.00,East,90,0.0,0.0,29,0.00,,,0.00,613.000000,,2013-07-09 17:45:00,
2013-07-09 10:53:00,92.0,55.0,-100.00,East,90,0.0,0.0,29,0.00,,,0.00,613.000000,,2013-07-09 17:53:00,
2013-07-09 11:01:00,92.0,55.0,-100.00,East,90,0.0,0.0,29,0.00,,,0.00,613.000000,,2013-07-09 18:01:00,
2013-07-09 11:32:00,89.0,53.0,-100.00,SE,140,0.0,0.0,29,0.00,,,0.00,751.000000,,2013-07-09 18:32:00,
2013-07-09 11:43:00,89.0,53.0,-100.00,SE,140,0.0,0.0,29,0.00,,,0.00,751.000000,,2013-07-09 18:43:00,
2013-07-09 11:52:00,89.0,53.0,-100.00,SE,140,0.0,0.0,29,0.00,,,0.00,751.000000,,2013-07-09 18:52:00,
2013-07-09 12:01:00,89.0,53.0,-100.00,SE,140,0.0,0.0,29,0.00,,,0.00,751.000000,,2013-07-09 19:01:00,
2013-07-09 12:33:00,93.0,54.0,-100.00,East,100,0.0,0.0,27,0.00,,,0.00,793.000000,,2013-07-09 19:33:00,
2013-07-09 12:42:00,93.0,54.0,-100.00,East,100,0.0,0.0,27,0.00,,,0.00,793.000000,,2013-07-09 19:42:00,
2013-07-09 12:52:00,93.0,54.0,-100.00,East,100,0.0,0.0,27,0.00,,,0.00,793.000000,,2013-07-09 19:52:00,
2013-07-09 13:01:00,93.0,54.0,-100.00,East,100,0.0,0.0,27,0.00,,,0.00,793.000000,,2013-07-09 20:01:00,
2013-07-09 13:32:00,92.0,54.0,-100.00,SSE,150,0.0,0.0,28,0.00,,,0.00,730.000000,,2013-07-09 20:32:00,
2013-07-09 13:43:00,92.0,54.0,-100.00,SSE,150,0.0,0.0,28,0.00,,,0.00,730.000000,,2013-07-09 20:43:00,
2013-07-09 13:52:00,92.0,54.0,-100.00,SSE,150,0.0,0.0,28,0.00,,,0.00,730.000000,,2013-07-09 20:52:00,
2013-07-09 14:01:00,92.0,54.0,-100.00,SSE,150,0.0,0.0,28,0.00,,,0.00,730.000000,,2013-07-09 21:01:00,
2013-07-09 14:32:00,92.0,53.0,-100.00,SSE,151,0.0,0.0,27,0.00,,,0.00,544.000000,,2013-07-09 21:32:00,
2013-07-09 14:42:00,92.0,53.0,-100.00,SSE,151,0.0,0.0,27,0.00,,,0.00,544.000000,,2013-07-09 21:42:00,
2013-07-09 14:52:00,92.0,53.0,-100.00,SSE,151,0.0,0.0,27,0.00,,,0.00,544.000000,,2013-07-09 21:52:00,
2013-07-09 15:01:00,92.0,53.0,-100.00,SSE,151,0.0,0.0,27,0.00,,,0.00,544.000000,,2013-07-09 22:01:00,
2013-07-09 15:33:00,98.0,49.0,-100.00,NE,42,0.0,0.0,19,0.00,,,0.00,504.000000,,2013-07-09 22:33:00,
2013-07-09 15:42:00,98.0,49.0,-100.00,NE,42,0.0,0.0,19,0.00,,,0.00,504.000000,,2013-07-09 22:42:00,
2013-07-09 15:53:00,98.0,49.0,-100.00,NE,42,0.0,0.0,19,0.00,,,0.00,504.000000,,2013-07-09 22:53:00,
2013-07-09 16:01:00,98.0,49.0,-100.00,NE,42,0.0,0.0,19,0.00,,,0.00,504.000000,,2013-07-09 23:01:00,
2013-07-09 16:33:00,102.0,46.0,-100.00,East,100,0.0,0.0,15,0.00,,,0.00,651.000000,,2013-07-09 23:33:00,
2013-07-09 16:43:00,102.0,46.0,-100.00,East,100,0.0,0.0,15,0.00,,,0.00,651.000000,,2013-07-09 23:43:00,
2013-07-09 16:53:00,102.0,46.0,-100.00,East,100,0.0,0.0,15,0.00,,,0.00,651.000000,,2013-07-09 23:53:00,
2013-07-09 17:01:00,102.0,46.0,-100.00,East,100,0.0,0.0,15,0.00,,,0.00,651.000000,,2013-07-10 00:01:00,
2013-07-09 17:33:00,103.0,45.0,-100.00,ESE,111,0.0,0.0,14,0.00,,,0.00,611.000000,,2013-07-10 00:33:00,
2013-07-09 17:43:00,103.0,45.0,-100.00,ESE,111,0.0,0.0,14,0.00,,,0.00,611.000000,,2013-07-10 00:43:00,
2013-07-09 17:52:00,103.0,45.0,-100.00,ESE,111,0.0,0.0,14,0.00,,,0.00,611.000000,,2013-07-10 00:52:00,
2013-07-09 18:01:00,103.0,45.0,-100.00,ESE,111,0.0,0.0,14,0.00,,,0.00,611.000000,,2013-07-10 01:01:00,
2013-07-09 18:33:00,90.0,43.0,-100.00,South,191,0.0,0.0,20,0.00,,,0.00,156.000000,,2013-07-10 01:33:00,
2013-07-09 18:43:00,90.0,43.0,-100.00,South,191,0.0,0.0,20,0.00,,,0.00,156.000000,,2013-07-10 01:43:00,
2013-07-09 18:53:00,90.0,43.0,-100.00,South,191,0.0,0.0,20,0.00,,,0.00,156.000000,,2013-07-10 01:53:00,
2013-07-09 19:01:00,90.0,43.0,-100.00,South,191,0.0,0.0,20,0.00,,,0.00,156.000000,,2013-07-10 02:01:00,
2013-07-09 19:43:00,86.0,45.0,-100.00,NNW,334,0.0,0.0,24,0.00,,,0.00,35.000000,,2013-07-10 02:43:00,
2013-07-09 19:53:00,86.0,45.0,-100.00,NNW,334,0.0,0.0,24,0.00,,,0.00,35.000000,,2013-07-10 02:53:00,
2013-07-09 20:01:00,86.0,45.0,-100.00,NNW,334,0.0,0.0,24,0.00,,,0.00,35.000000,,2013-07-10 03:01:00,
2013-07-09 20:22:00,81.0,44.0,-100.00,NNW,340,0.0,0.0,27,0.00,,,0.00,8.000000,,2013-07-10 03:22:00,
2013-07-09 20:32:00,81.0,44.0,-100.00,NNW,340,0.0,0.0,27,0.00,,,0.00,8.000000,,2013-07-10 03:32:00,
2013-07-09 20:43:00,81.0,44.0,-100.00,NNW,340,0.0,0.0,27,0.00,,,0.00,8.000000,,2013-07-10 03:43:00,
2013-07-09 20:52:00,81.0,44.0,-100.00,NNW,340,0.0,0.0,27,0.00,,,0.00,8.000000,,2013-07-10 03:52:00,
2013-07-09 21:01:00,81.0,44.0,-100.00,NNW,340,0.0,0.0,27,0.00,,,0.00,8.000000,,2013-07-10 04:01:00,
2013-07-09 21:33:00,79.0,44.0,-100.00,SSE,160,0.0,0.0,29,0.00,,,0.00,0.000000,,2013-07-10 04:33:00,
2013-07-09 21:43:00,79.0,44.0,-100.00,SSE,160,0.0,0.0,29,0.00,,,0.00,0.000000,,2013-07-10 04:43:00,
2013-07-09 21:52:00,79.0,44.0,-100.00,SSE,160,0.0,0.0,29,0.00,,,0.00,0.000000,,2013-07-10 04:52:00,
2013-07-09 22:01:00,79.0,44.0,-100.00,SSE,160,0.0,0.0,29,0.00,,,0.00,0.000000,,2013-07-10 05:01:00,
2013-07-09 22:32:00,78.0,44.0,-100.00,North,351,0.0,0.0,30,0.00,,,0.00,0.000000,,2013-07-10 05:32:00,
2013-07-09 22:42:00,78.0,44.0,-100.00,North,351,0.0,0.0,30,0.00,,,0.00,0.000000,,2013-07-10 05:42:00,
2013-07-09 22:53:00,78.0,44.0,-100.00,North,351,0.0,0.0,30,0.00,,,0.00,0.000000,,2013-07-10 05:53:00,
2013-07-09 23:01:00,78.0,44.0,-100.00,North,351,0.0,0.0,30,0.00,,,0.00,0.000000,,2013-07-10 06:01:00,
2013-07-09 23:22:00,74.0,44.0,-100.00,North,357,0.0,0.0,34,0.00,,,0.00,0.000000,,2013-07-10 06:22:00,
2013-07-09 23:33:00,74.0,44.0,-100.00,North,357,0.0,0.0,34,0.00,,,0.00,0.000000,,2013-07-10 06:33:00,
2013-07-09 23:42:00,74.0,44.0,-100.00,North,357,0.0,0.0,34,0.00,,,0.00,0.000000,,2013-07-10 06:42:00,
2013-07-09 23:52:00,74.0,44.0,-100.00,North,357,0.0,0.0,34,0.00,,,0.00,0.000000,,2013-07-10 06:52:00,